Time;durP1;ratioP1;P1;durP2;ratioP2;P2;SDS_P1;SDS_P2;PMS_P1;PMS_P2;Temp;Humidity;BMP_temperature;BMP_pressure;BME280_temperature;BME280_humidity;BME280_pressure;Samples;Min_cycle;Max_cycle;Signal;HPM_P1;HPM_P2
2021/03/28 00:02:53;;;;;;;5.45;1.65;;;6.80;42.30;;;;;;4937129;29;20030;-80
2021/03/28 00:05:22;;;;;;;3.20;1.13;;;6.70;42.80;;;;;;4936858;29;20056;-80
2021/03/28 00:07:47;;;;;;;6.25;2.97;;;6.70;64.50;;;;;;4938532;29;20032;-81
2021/03/28 00:10:28;;;;;;;4.05;1.50;;;6.80;43.10;;;;;;4938741;29;20457;-81
2021/03/28 00:13:13;;;;;;;2.70;1.58;;;6.70;42.60;;;;;;4937689;29;20394;-81
2021/03/28 00:15:57;;;;;;;8.38;3.08;;;6.80;50.40;;;;;;4938672;29;20028;-80
2021/03/28 00:18:27;;;;;;;5.43;2.35;;;6.60;43.80;;;;;;4939196;28;20039;-81
2021/03/28 00:21:12;;;;;;;3.15;1.92;;;6.80;43.20;;;;;;4933995;28;20155;-81
2021/03/28 00:24:12;;;;;;;3.10;1.77;;;6.70;42.90;;;;;;4937057;29;20036;-81
2021/03/28 00:26:45;;;;;;;5.35;2.38;;;6.70;64.30;;;;;;4931697;29;20028;-81
2021/03/28 00:29:24;;;;;;;4.28;1.92;;;6.80;42.90;;;;;;4941466;29;20409;-81
2021/03/28 00:32:04;;;;;;;2.08;1.40;;;6.80;42.80;;;;;;4944314;29;20122;-81
2021/03/28 00:34:39;;;;;;;4.97;1.00;;;6.70;42.70;;;;;;4941957;29;20094;-83
2021/03/28 00:37:07;;;;;;;2.92;1.40;;;6.70;64.70;;;;;;4937638;29;20392;-81
2021/03/28 00:39:33;;;;;;;2.83;0.85;;;;;;;;;;4934637;29;20110;-80
2021/03/28 00:42:05;;;;;;;3.03;1.25;;;6.20;43.40;;;;;;4939314;28;20027;-80
2021/03/28 00:44:33;;;;;;;2.65;1.25;;;6.20;44.00;;;;;;4934753;29;20126;-82
2021/03/28 00:47:04;;;;;;;3.33;2.20;;;6.40;44.30;;;;;;4942331;29;20032;-82
2021/03/28 00:49:30;;;;;;;7.18;3.00;;;;;;;;;;4939277;29;20039;-81
2021/03/28 00:52:11;;;;;;;4.30;2.03;;;6.60;44.20;;;;;;4938443;29;20515;-81
2021/03/28 00:54:43;;;;;;;1.73;1.17;;;6.70;65.60;;;;;;4940256;29;20404;-82
2021/03/28 00:57:43;;;;;;;1.67;1.20;;;6.70;43.20;;;;;;4935737;29;20031;-82
2021/03/28 01:00:18;;;;;;;1.33;0.93;;;6.50;43.80;;;;;;4935276;29;20097;-80
2021/03/28 01:03:03;;;;;;;19.25;1.13;;;6.80;65.10;;;;;;4934351;28;20099;-81
2021/03/28 01:05:49;;;;;;;9.45;1.42;;;6.60;42.70;;;;;;4934926;29;20064;-82
2021/03/28 01:08:24;;;;;;;14.57;2.65;;;6.50;43.30;;;;;;4936573;28;20038;-80
2021/03/28 01:10:59;;;;;;;1.08;0.93;;;;;;;;;;4938135;29;20103;-81
2021/03/28 01:13:53;;;;;;;7.28;1.33;;;6.10;43.50;;;;;;4937731;29;20046;-80
2021/03/28 01:16:57;;;;;;;6.95;1.13;;;6.10;43.50;;;;;;4939848;28;20061;-82
2021/03/28 01:19:32;;;;;;;2.75;1.50;;;6.00;44.60;;;;;;4942806;29;20030;-81
2021/03/28 01:22:00;;;;;;;2.15;1.08;;;5.90;66.40;;;;;;4941106;29;20059;-80
2021/03/28 01:24:36;;;;;;;2.33;1.35;;;6.00;44.70;;;;;;4938966;28;20052;-81
2021/03/28 01:27:20;;;;;;;2.08;1.70;;;6.00;44.70;;;;;;4937969;29;20114;-81
2021/03/28 01:30:07;;;;;;;2.00;0.93;;;5.90;66.90;;;;;;4945089;29;20508;-80
2021/03/28 01:32:33;;;;;;;1.35;1.25;;;;;;;;;;4939441;29;20047;-82
2021/03/28 01:35:11;;;;;;;2.55;1.85;;;6.20;43.80;;;;;;4942583;28;20040;-81
2021/03/28 01:37:42;;;;;;;5.07;1.13;;;6.20;44.30;;;;;;4940634;29;20034;-81
2021/03/28 01:40:25;;;;;;;1.67;1.42;;;6.40;43.90;;;;;;4942539;29;20180;-80
2021/03/28 01:43:13;;;;;;;4.55;1.67;;;;;;;;;;4941448;29;20028;-80
2021/03/28 01:46:12;;;;;;;1.65;1.10;;;6.00;44.10;;;;;;4938326;29;20031;-79
2021/03/28 01:48:38;;;;;;;4.13;0.95;;;;;;;;;;4940126;29;20049;-80
2021/03/28 01:51:36;;;;;;;1.75;0.95;;;6.00;55.80;;;;;;4937186;29;20063;-80
2021/03/28 01:54:16;;;;;;;5.28;1.45;;;6.00;43.60;;;;;;4913656;29;20072;-80
2021/03/28 01:57:04;;;;;;;2.10;0.90;;;5.90;43.50;;;;;;4930639;29;20054;-81
2021/03/28 01:59:57;;;;;;;0.80;0.80;;;1.30;40.60;;;;;;4915045;29;20383;-80
2021/03/28 02:02:49;;;;;;;3.50;0.60;;;6.00;56.40;;;;;;4930996;29;20038;-80
2021/03/28 02:05:32;;;;;;;3.00;0.90;;;6.10;44.10;;;;;;4914460;29;20532;-81
2021/03/28 02:08:10;;;;;;;2.42;1.15;;;5.90;44.30;;;;;;4930928;29;20040;-80
2021/03/28 02:10:54;;;;;;;;;;;5.80;45.00;;;;;;4930534;29;20035;-81
2021/03/28 02:13:34;;;;;;;0.80;0.60;;;5.60;45.30;;;;;;4929724;29;20009;-79
2021/03/28 02:16:25;;;;;;;2.42;1.42;;;5.70;67.80;;;;;;4914483;29;20079;-81
2021/03/28 02:18:51;;;;;;;0.88;0.70;;;;;;;;;;4929895;29;20086;-81
2021/03/28 02:21:24;;;;;;;0.77;0.77;;;5.90;44.50;;;;;;4930054;29;20450;-81
2021/03/28 02:24:18;;;;;;;1.25;0.70;;;5.90;44.30;;;;;;4929799;29;20452;-82
2021/03/28 02:26:50;;;;;;;1.55;0.85;;;6.00;43.60;;;;;;4857517;29;20099;-80
2021/03/28 02:29:26;;;;;;;0.63;0.60;;;5.60;66.80;;;;;;4874740;29;20048;-80
2021/03/28 02:32:24;;;;;;;1.13;0.70;;;5.70;44.90;;;;;;4906777;29;20048;-80
2021/03/28 02:35:34;;;;;;;1.88;0.80;;;5.80;44.70;;;;;;4908258;29;20090;-81
2021/03/28 02:38:12;;;;;;;1.25;0.80;;;;;;;;;;4911677;29;20048;-81
2021/03/28 02:40:48;;;;;;;14.55;1.15;;;5.10;46.40;;;;;;4910574;29;20091;-80
2021/03/28 02:43:25;;;;;;;1.23;0.95;;;5.10;57.10;;;;;;4910134;29;20032;-81
2021/03/28 02:46:11;;;;;;;5.10;1.42;;;5.50;45.10;;;;;;4908115;29;20119;-80
2021/03/28 02:49:15;;;;;;;3.13;1.10;;;5.40;44.70;;;;;;4908184;29;20136;-81
2021/03/28 02:51:53;;;;;;;4.78;1.20;;;;;;;;;;4908500;29;20443;-81
2021/03/28 02:54:28;;;;;;;1.27;1.17;;;5.50;45.50;;;;;;4904967;29;20036;-80
2021/03/28 02:57:12;;;;;;;2.92;0.95;;;5.70;44.70;;;;;;4910279;29;20095;-81
2021/03/28 02:59:53;;;;;;;1.17;1.08;;;5.40;46.00;;;;;;4909405;29;20026;-80
2021/03/28 03:02:33;;;;;;;2.55;1.10;;;;;;;;;;4910673;29;20091;-81
2021/03/28 03:05:16;;;;;;;4.00;0.75;;;5.60;44.60;;;;;;4939912;29;20046;-80
2021/03/28 03:08:03;;;;;;;1.83;0.90;;;5.60;44.40;;;;;;4942667;29;20042;-80
2021/03/28 03:10:54;;;;;;;1.05;0.82;;;5.80;65.90;;;;;;4935289;29;20110;-81
2021/03/28 03:14:01;;;;;;;17.52;2.17;;;5.40;44.90;;;;;;4940192;29;20050;-80
2021/03/28 03:16:45;;;;;;;0.75;0.68;;;5.30;55.80;;;;;;4939457;29;20486;-80
2021/03/28 03:19:19;;;;;;;8.82;0.90;;;5.50;44.40;;;;;;4939961;29;20027;-81
2021/03/28 03:22:22;;;;;;;2.78;1.40;;;5.60;52.50;;;;;;4937207;29;20030;-80
2021/03/28 03:25:15;;;;;;;4.85;1.25;;;5.70;66.00;;;;;;4943296;29;20496;-80
2021/03/28 03:28:10;;;;;;;4.15;1.40;;;3.40;42.60;;;;;;4936570;29;20580;-80
2021/03/28 03:30:58;;;;;;;2.05;0.65;;;;;;;;;;4935947;29;20090;-80
2021/03/28 03:33:24;;;;;;;3.92;1.20;;;;;;;;;;4937191;28;20424;-81
2021/03/28 03:36:04;;;;;;;1.67;1.10;;;5.50;44.10;;;;;;4937832;29;20123;-81
2021/03/28 03:38:48;;;;;;;1.65;1.40;;;5.70;66.20;;;;;;4936828;29;20059;-81
2021/03/28 03:41:33;;;;;;;2.53;1.00;;;;;;;;;;4941409;29;20027;-81
2021/03/28 03:44:30;;;;;;;3.33;1.40;;;5.50;44.30;;;;;;4938657;29;20412;-82
2021/03/28 03:47:09;;;;;;;4.30;2.22;;;;;;;;;;4939156;29;20092;-80
2021/03/28 03:50:14;;;;;;;1.05;0.80;;;4.90;45.60;;;;;;4939145;29;20485;-80
2021/03/28 03:52:52;;;;;;;1.20;1.10;;;;;;;;;;4945600;28;20035;-81
2021/03/28 03:55:23;;;;;;;1.85;0.90;;;5.20;45.40;;;;;;4931479;29;20125;-81
2021/03/28 03:57:53;;;;;;;0.75;0.70;;;5.20;44.80;;;;;;4931167;29;20039;-80
2021/03/28 04:00:19;;;;;;;1.75;1.02;;;;;;;;;;4947398;29;20042;-80
2021/03/28 04:03:03;;;;;;;0.82;0.75;;;5.10;44.50;;;;;;4947289;29;20113;-81
2021/03/28 04:06:06;;;;;;;1.77;1.13;;;5.20;44.50;;;;;;4948132;29;20054;-81
2021/03/28 04:08:32;;;;;;;4.47;1.33;;;;;;;;;;4928460;29;20122;-81
2021/03/28 04:11:06;;;;;;;2.10;0.65;;;5.00;45.40;;;;;;4947901;29;20493;-80
2021/03/28 04:13:44;;;;;;;3.70;0.85;;;;;;;;;;4930527;29;20145;-81
2021/03/28 04:16:42;;;;;;;1.85;1.60;;;4.90;46.20;;;;;;4947293;28;20067;-80
2021/03/28 04:19:28;;;;;;;3.60;2.22;;;4.90;69.00;;;;;;4941193;29;20031;-81
2021/03/28 04:22:07;;;;;;;3.63;1.00;;;;;;;;;;4939309;29;20044;-80
2021/03/28 04:25:02;;;;;;;3.38;0.82;;;5.40;44.20;;;;;;4947407;29;20579;-81
2021/03/28 04:27:59;;;;;;;5.57;1.55;;;5.30;54.50;;;;;;4947151;29;20510;-80
2021/03/28 04:30:48;;;;;;;0.55;0.55;;;5.20;44.50;;;;;;4943091;29;20034;-80
2021/03/28 04:33:20;;;;;;;0.82;0.70;;;5.30;55.40;;;;;;4936670;29;20078;-80
2021/03/28 04:36:11;;;;;;;0.47;0.47;;;5.10;44.10;;;;;;4934071;28;20051;-80
2021/03/28 04:38:55;;;;;;;1.63;0.57;;;5.10;44.40;;;;;;4935808;29;20044;-80
2021/03/28 04:41:40;;;;;;;2.38;0.77;;;;;;;;;;4939528;29;20028;-80
2021/03/28 04:44:18;;;;;;;0.75;0.75;;;5.20;43.90;;;;;;4948706;29;20038;-80
2021/03/28 04:46:46;;;;;;;1.95;1.83;;;5.10;52.80;;;;;;4941091;28;20031;-81
2021/03/28 04:49:38;;;;;;;0.55;0.50;;;5.10;44.30;;;;;;4939807;29;20027;-79
2021/03/28 04:52:18;;;;;;;0.68;0.68;;;5.20;47.80;;;;;;4943849;29;20039;-80
2021/03/28 04:55:13;;;;;;;2.75;1.42;;;4.60;64.10;;;;;;4941786;28;20074;-80
2021/03/28 04:57:55;;;;;;;1.88;1.17;;;5.00;45.00;;;;;;4934198;29;20039;-81
2021/03/28 05:00:39;;;;;;;0.75;0.65;;;5.00;44.10;;;;;;4950759;29;20023;-80
2021/03/28 05:03:23;;;;;;;10.60;1.10;;;;;;;;;;4922428;29;20123;-80
2021/03/28 05:06:03;;;;;;;1.30;1.08;;;5.20;66.20;;;;;;4950487;28;29714;-81
2021/03/28 05:08:55;;;;;;;8.65;1.20;;;5.00;44.30;;;;;;4951193;28;20046;-80
2021/03/28 05:12:07;;;;;;;1.60;1.50;;;5.10;44.60;;;;;;4951476;29;20615;-80
2021/03/28 05:14:48;;;;;;;0.80;0.73;;;5.00;55.10;;;;;;4919716;29;20817;-80
2021/03/28 05:17:38;;;;;;;1.50;1.00;;;4.90;45.20;;;;;;4921235;29;20035;-80
2021/03/28 05:20:22;;;;;;;10.20;1.23;;;4.80;45.30;;;;;;4919177;29;20039;-81
2021/03/28 05:23:18;;;;;;;3.70;1.63;;;4.80;46.30;;;;;;4917445;29;20040;-81
2021/03/28 05:26:02;;;;;;;1.33;1.15;;;5.00;45.90;;;;;;4913778;29;20050;-80
2021/03/28 05:29:01;;;;;;;2.60;1.38;;;5.30;45.00;;;;;;4911329;29;20044;-80
2021/03/28 05:31:51;;;;;;;0.98;0.90;;;5.30;44.20;;;;;;4925020;29;20078;-80
2021/03/28 05:34:43;;;;;;;2.15;1.55;;;5.10;43.20;;;;;;4924948;29;20039;-81
2021/03/28 05:37:37;;;;;;;2.17;1.20;;;4.90;43.80;;;;;;4910185;29;20074;-80
2021/03/28 05:40:06;;;;;;;12.07;1.67;;;4.90;43.50;;;;;;4923885;29;20063;-79
2021/03/28 05:42:34;;;;;;;0.95;0.93;;;;;;;;;;4900870;29;20493;-79
2021/03/28 05:45:09;;;;;;;6.10;1.35;;;4.80;45.20;;;;;;4926926;29;20059;-79
2021/03/28 05:47:59;;;;;;;1.52;0.85;;;4.90;45.00;;;;;;4929638;29;20028;-79
2021/03/28 05:50:34;;;;;;;1.25;1.15;;;5.00;44.50;;;;;;4924708;29;20063;-79
2021/03/28 05:52:59;;;;;;;1.42;0.95;;;;;;;;;;4944013;29;20501;-79
2021/03/28 05:56:07;;;;;;;3.10;1.05;;;5.00;44.10;;;;;;4945723;28;20070;-80
2021/03/28 05:58:49;;;;;;;0.75;0.65;;;;;;;;;;4929181;29;20091;-80
2021/03/28 06:01:21;;;;;;;0.95;0.85;;;;;;;;;;4928800;29;20028;-81
2021/03/28 06:04:37;;;;;;;1.75;1.10;;;4.40;48.30;;;;;;4928758;29;20521;-81
2021/03/28 06:07:41;;;;;;;4.03;1.30;;;4.90;54.60;;;;;;4927527;29;20055;-81
2021/03/28 06:10:44;;;;;;;2.10;1.00;;;4.80;44.60;;;;;;4908634;29;20036;-81
2021/03/28 06:13:33;;;;;;;1.85;1.10;;;4.90;44.40;;;;;;4926800;29;20047;-81
2021/03/28 06:16:48;;;;;;;2.25;1.15;;;5.10;43.90;;;;;;4922932;29;20036;-81
2021/03/28 06:19:14;;;;;;;1.25;0.98;;;;;;;;;;4876364;29;20045;-81
2021/03/28 06:22:00;;;;;;;3.67;1.58;;;5.40;43.80;;;;;;4880358;29;20041;-81
2021/03/28 06:24:43;;;;;;;2.97;1.27;;;6.00;42.50;;;;;;4880929;29;20033;-81
2021/03/28 06:27:30;;;;;;;11.57;2.08;;;6.50;52.10;;;;;;4880687;29;20033;-81
2021/03/28 06:30:20;;;;;;;6.75;1.60;;;6.80;41.20;;;;;;4874345;29;20045;-81
2021/03/28 06:33:23;;;;;;;2.05;1.33;;;7.30;40.30;;;;;;4871482;29;20040;-81
2021/03/28 06:36:01;;;;;;;3.47;2.40;;;8.20;48.00;;;;;;4876931;29;20060;-81
2021/03/28 06:38:56;;;;;;;2.10;1.02;;;8.60;38.10;;;;;;4876952;29;20119;-81
2021/03/28 06:41:26;;;;;;;4.45;1.83;;;9.00;37.60;;;;;;4879459;29;21470;-82
2021/03/28 06:44:11;;;;;;;6.45;1.95;;;;;;;;;;4876987;29;20044;-79
2021/03/28 06:47:03;;;;;;;9.45;4.07;;;10.10;34.80;;;;;;4874084;29;20025;-82
2021/03/28 06:49:37;;;;;;;2.72;2.00;;;;;;;;;;4879757;29;20049;-81
2021/03/28 06:52:16;;;;;;;8.88;1.95;;;10.50;33.70;;;;;;4879470;29;20033;-81
2021/03/28 06:55:19;;;;;;;8.40;3.08;;;10.50;54.80;;;;;;4872245;29;20035;-81
2021/03/28 06:58:10;;;;;;;4.07;2.60;;;10.80;32.70;;;;;;4941846;28;20134;-82
2021/03/28 07:00:39;;;;;;;7.18;1.80;;;10.70;53.60;;;;;;4939560;29;20034;-81
2021/03/28 07:03:42;;;;;;;3.30;2.20;;;11.40;32.30;;;;;;4944463;29;20053;-82
2021/03/28 07:06:22;;;;;;;3.42;1.55;;;11.40;32.10;;;;;;4941323;29;20043;-81
2021/03/28 07:08:59;;;;;;;6.00;2.78;;;10.90;53.70;;;;;;4947379;28;20030;-81
2021/03/28 07:11:31;;;;;;;3.08;1.55;;;11.40;54.20;;;;;;4941643;29;20038;-81
2021/03/28 07:14:01;;;;;;;4.30;2.17;;;;;;;;;;4947694;28;20047;-81
2021/03/28 07:16:54;;;;;;;4.80;1.83;;;12.10;31.30;;;;;;4939603;29;20572;-82
2021/03/28 07:19:26;;;;;;;6.85;2.90;;;12.30;51.80;;;;;;4940976;29;20039;-81
2021/03/28 07:21:52;;;;;;;5.28;1.83;;;;;;;;;;4940482;29;20035;-81
2021/03/28 07:24:55;;;;;;;9.38;4.13;;;12.80;51.50;;;;;;4940042;29;20033;-82
2021/03/28 07:27:21;;;;;;;5.72;2.05;;;;;;;;;;4938487;29;20073;-83
2021/03/28 07:29:47;;;;;;;4.20;2.78;;;;;;;;;;4932569;29;20062;-82
2021/03/28 07:32:40;;;;;;;3.90;2.28;;;14.80;29.90;;;;;;4934129;28;20485;-82
2021/03/28 07:35:06;;;;;;;3.40;2.30;;;;;;;;;;4934528;29;20035;-81
2021/03/28 07:38:09;;;;;;;6.38;2.03;;;15.60;33.40;;;;;;4938916;29;20485;-82
2021/03/28 07:40:53;;;;;;;4.97;2.33;;;16.20;28.20;;;;;;4938817;29;20074;-83
2021/03/28 07:43:53;;;;;;;9.07;2.15;;;16.10;28.50;;;;;;4941160;29;20114;-83
2021/03/28 07:47:01;;;;;;;3.60;2.35;;;16.30;46.60;;;;;;4939789;29;20031;-83
2021/03/28 07:49:46;;;;;;;6.60;1.50;;;16.90;35.50;;;;;;4945250;29;20549;-83
2021/03/28 07:52:38;;;;;;;1.83;1.42;;;17.20;27.30;;;;;;4940116;29;20118;-82
2021/03/28 07:55:23;;;;;;;2.58;1.48;;;17.40;27.50;;;;;;4943934;28;20062;-83
2021/03/28 07:58:04;;;;;;;5.57;2.00;;;17.60;34.80;;;;;;4948340;28;20035;-82
2021/03/28 08:00:50;;;;;;;6.05;1.90;;;18.20;27.60;;;;;;4945556;29;20540;-83
2021/03/28 08:03:46;;;;;;;7.18;1.95;;;18.50;27.60;;;;;;4940490;29;20046;-83
2021/03/28 08:06:46;;;;;;;9.40;2.03;;;18.90;27.00;;;;;;4936748;29;20044;-82
2021/03/28 08:09:35;;;;;;;6.45;2.53;;;19.40;41.60;;;;;;4943366;29;20043;-82
2021/03/28 08:12:39;;;;;;;4.90;1.80;;;20.10;23.60;;;;;;4946163;29;20742;-83
2021/03/28 08:15:36;;;;;;;7.57;1.55;;;20.20;23.70;;;;;;4942542;29;20166;-83
2021/03/28 08:18:14;;;;;;;;;;;20.30;24.10;;;;;;4943708;29;20393;-81
2021/03/28 08:20:43;;;;;;;9.20;1.83;;;;;;;;;;4942505;28;19918;-82
2021/03/28 08:23:27;;;;;;;4.57;1.70;;;20.20;39.50;;;;;;4936662;28;20019;-83
2021/03/28 08:26:22;;;;;;;6.22;1.67;;;19.70;31.50;;;;;;4941183;29;20027;-83
2021/03/28 08:29:25;;;;;;;4.65;2.03;;;19.40;39.30;;;;;;4944595;28;20036;-82
2021/03/28 08:32:15;;;;;;;2.88;1.83;;;20.40;22.40;;;;;;4951232;29;20067;-82
2021/03/28 08:34:41;;;;;;;5.18;2.00;;;;;;;;;;4945084;28;20118;-83
2021/03/28 08:37:07;;;;;;;2.15;1.73;;;;;;;;;;4943552;29;20470;-82
2021/03/28 08:39:42;;;;;;;3.30;1.85;;;;;;;;;;4940775;28;20032;-82
2021/03/28 08:42:36;;;;;;;3.20;1.15;;;20.80;22.60;;;;;;4937512;29;20025;-81
2021/03/28 08:45:30;;;;;;;6.85;1.48;;;20.90;26.50;;;;;;4938964;29;20045;-81
2021/03/28 08:48:03;;;;;;;2.63;1.05;;;;;;;;;;4943113;28;20816;-80
2021/03/28 08:50:56;;;;;;;1.92;1.25;;;21.30;23.20;;;;;;4942352;29;20031;-82
2021/03/28 08:53:58;;;;;;;3.38;1.67;;;21.40;22.80;;;;;;4948736;29;20051;-81
2021/03/28 08:57:03;;;;;;;5.53;1.23;;;21.30;23.30;;;;;;4949256;29;20047;-82
2021/03/28 08:59:41;;;;;;;3.05;1.25;;;;;;;;;;4946968;29;20615;-82
2021/03/28 09:02:07;;;;;;;8.30;1.10;;;;;;;;;;4938268;29;20050;-81
2021/03/28 09:04:50;;;;;;;4.00;1.48;;;21.20;22.30;;;;;;4941480;29;20109;-79
2021/03/28 09:07:24;;;;;;;5.05;1.55;;;21.40;40.30;;;;;;4941411;29;20107;-81
2021/03/28 09:10:24;;;;;;;2.38;1.25;;;21.30;23.30;;;;;;4941257;29;20027;-80
2021/03/28 09:12:55;;;;;;;1.50;0.70;;;21.80;23.00;;;;;;4939527;29;20066;-81
2021/03/28 09:15:21;;;;;;;1.17;0.88;;;;;;;;;;4942421;28;20469;-80
2021/03/28 09:17:54;;;;;;;3.92;0.93;;;;;;;;;;4936438;28;20088;-81
2021/03/28 09:20:31;;;;;;;4.55;1.52;;;;;;;;;;4944127;28;20032;-81
2021/03/28 09:23:40;;;;;;;3.83;1.73;;;22.50;22.00;;;;;;4941594;28;20044;-81
2021/03/28 09:26:06;;;;;;;3.17;1.00;;;;;;;;;;4950793;28;20508;-81
2021/03/28 09:28:35;;;;;;;6.05;1.00;;;;;;;;;;4949632;28;20037;-81
2021/03/28 09:31:26;;;;;;;4.50;0.82;;;23.10;21.60;;;;;;4949600;28;20046;-81
2021/03/28 09:33:52;;;;;;;3.28;0.80;;;;;;;;;;4941526;28;20070;-80
2021/03/28 09:36:20;;;;;;;2.17;1.15;;;;;;;;;;4948563;28;20543;-81
2021/03/28 09:38:50;;;;;;;2.72;1.23;;;;;;;;;;4950752;29;20231;-82
2021/03/28 09:41:21;;;;;;;1.42;0.60;;;23.90;35.90;;;;;;4951243;29;20023;-80
2021/03/28 09:44:14;;;;;;;6.40;1.08;;;23.80;21.70;;;;;;4932467;28;20644;-82
2021/03/28 09:47:19;;;;;;;3.85;0.77;;;25.40;18.40;;;;;;4950221;28;20050;-80
2021/03/28 09:50:01;;;;;;;5.38;0.73;;;25.00;18.60;;;;;;4949381;28;20039;-81
2021/03/28 09:53:14;;;;;;;3.72;1.73;;;24.90;19.10;;;;;;4947589;29;20531;-81
2021/03/28 09:56:01;;;;;;;1.48;0.60;;;24.70;35.30;;;;;;4936324;29;20063;-82
2021/03/28 09:58:42;;;;;;;2.92;0.60;;;24.60;25.20;;;;;;4949421;28;20046;-81
2021/03/28 10:01:38;;;;;;;0.95;0.68;;;24.90;23.00;;;;;;4948247;29;20023;-81
2021/03/28 10:04:17;;;;;;;4.95;0.98;;;;;;;;;;4940829;29;20032;-81
2021/03/28 10:06:45;;;;;;;2.72;0.95;;;24.20;21.20;;;;;;4941322;29;20603;-81
2021/03/28 10:09:11;;;;;;;4.53;1.17;;;;;;;;;;4937155;29;20026;-81
2021/03/28 10:11:40;;;;;;;4.65;0.70;;;;;;;;;;4935736;28;20028;-79
2021/03/28 10:14:12;;;;;;;3.65;0.50;;;;;;;;;;4943718;29;20032;-81
2021/03/28 10:16:50;;;;;;;1.50;0.70;;;25.80;19.60;;;;;;4945329;28;20035;-79
2021/03/28 10:19:20;;;;;;;2.60;0.93;;;;;;;;;;4944957;28;20035;-83
2021/03/28 10:22:04;;;;;;;3.10;1.08;;;25.70;34.10;;;;;;4942216;28;20027;-80
2021/03/28 10:25:00;;;;;;;8.32;1.17;;;25.90;33.70;;;;;;4946325;29;20071;-80
2021/03/28 10:27:26;;;;;;;2.70;0.77;;;;;;;;;;4945120;29;20556;-80
2021/03/28 10:29:55;;;;;;;2.13;0.70;;;;;;;;;;4946134;28;20138;-81
2021/03/28 10:32:24;;;;;;;2.90;0.50;;;;;;;;;;4946110;28;20024;-80
2021/03/28 10:35:05;;;;;;;3.42;0.47;;;;;;;;;;4944962;28;20047;-81
2021/03/28 10:37:57;;;;;;;2.38;0.73;;;24.60;19.30;;;;;;4945429;28;20019;-80
2021/03/28 10:40:45;;;;;;;5.35;0.77;;;24.60;19.10;;;;;;4941999;29;20519;-80
2021/03/28 10:43:11;;;;;;;4.13;0.90;;;;;;;;;;4944220;29;20035;-80
2021/03/28 10:45:37;;;;;;;1.88;0.70;;;;;;;;;;4923813;28;20763;-80
2021/03/28 10:48:23;;;;;;;2.15;0.40;;;24.80;20.10;;;;;;4946869;28;20484;-80
2021/03/28 10:51:16;;;;;;;2.28;1.00;;;24.30;19.60;;;;;;4944637;29;20085;-79
2021/03/28 10:53:57;;;;;;;5.82;0.90;;;;;;;;;;4941980;29;20041;-82
2021/03/28 10:56:49;;;;;;;1.67;0.70;;;23.50;21.10;;;;;;4947834;29;20483;-79
2021/03/28 10:59:51;;;;;;;4.45;1.58;;;23.50;20.70;;;;;;4923164;29;20053;-81
2021/03/28 11:02:46;;;;;;;2.78;1.10;;;22.60;21.20;;;;;;4905088;29;20057;-80
2021/03/28 11:05:33;;;;;;;7.80;1.63;;;22.40;22.80;;;;;;4923485;29;20047;-79
2021/03/28 11:08:12;;;;;;;3.33;0.93;;;22.60;24.00;;;;;;4909705;29;20062;-79
2021/03/28 11:10:38;;;;;;;5.03;0.75;;;;;;;;;;4925066;29;20048;-80
2021/03/28 11:13:34;;;;;;;2.08;0.60;;;22.30;23.80;;;;;;4924896;29;20039;-79
2021/03/28 11:16:29;;;;;;;1.65;0.80;;;22.10;36.40;;;;;;4926137;29;20057;-80
2021/03/28 11:18:55;;;;;;;6.38;0.68;;;;;;;;;;4927641;29;20035;-80
2021/03/28 11:21:29;;;;;;;6.03;1.48;;;21.90;23.10;;;;;;4925920;29;20171;-83
2021/03/28 11:24:06;;;;;;;1.98;0.60;;;22.00;23.20;;;;;;4914779;29;20140;-80
2021/03/28 11:26:58;;;;;;;1.45;0.93;;;22.30;24.10;;;;;;4913635;29;20490;-80
2021/03/28 11:29:27;;;;;;;2.83;0.88;;;;;;;;;;4920154;29;20595;-81
2021/03/28 11:32:19;;;;;;;4.38;0.70;;;22.20;23.10;;;;;;4921960;29;20036;-81
2021/03/28 11:34:58;;;;;;;3.92;0.73;;;21.90;21.20;;;;;;4906672;29;20046;-81
2021/03/28 11:37:39;;;;;;;3.10;1.00;;;21.10;24.50;;;;;;4942008;29;20410;-81
2021/03/28 11:40:31;;;;;;;4.30;0.73;;;21.00;32.70;;;;;;4938823;29;20031;-80
2021/03/28 11:43:05;;;;;;;0.90;0.70;;;21.30;27.70;;;;;;4940508;29;20040;-80
2021/03/28 11:45:44;;;;;;;1.35;0.80;;;21.30;23.20;;;;;;4934113;29;20035;-81
2021/03/28 11:48:24;;;;;;;2.97;0.82;;;21.40;40.30;;;;;;4941985;29;20038;-80
2021/03/28 11:50:51;;;;;;;6.60;0.80;;;;;;;;;;4944947;28;20065;-81
2021/03/28 11:53:22;;;;;;;3.63;1.45;;;21.70;23.70;;;;;;4941663;29;20610;-82
2021/03/28 11:55:55;;;;;;;4.55;0.90;;;21.60;41.20;;;;;;4941963;29;20027;-80
2021/03/28 11:58:21;;;;;;;1.02;0.93;;;;;;;;;;4945587;28;20475;-82
2021/03/28 12:00:48;;;;;;;3.22;0.75;;;21.10;24.10;;;;;;4942179;28;20059;-80
2021/03/28 12:03:21;;;;;;;1.55;0.80;;;;;;;;;;4943661;28;20035;-80
2021/03/28 12:06:10;;;;;;;5.78;1.25;;;20.50;23.40;;;;;;4945965;29;20055;-82
2021/03/28 12:08:45;;;;;;;2.92;0.60;;;20.10;22.90;;;;;;4946208;28;20090;-81
2021/03/28 12:11:42;;;;;;;3.45;1.38;;;19.90;24.70;;;;;;4954655;28;20042;-81
2021/03/28 12:14:13;;;;;;;0.50;0.43;;;20.20;25.30;;;;;;4943865;29;20039;-81
2021/03/28 12:17:10;;;;;;;1.33;0.70;;;20.30;25.00;;;;;;4945217;28;20039;-80
2021/03/28 12:19:48;;;;;;;1.85;0.82;;;;;;;;;;4943534;28;20028;-81
2021/03/28 12:22:26;;;;;;;1.17;0.77;;;20.50;23.60;;;;;;4944140;28;20408;-81
2021/03/28 12:25:03;;;;;;;3.30;0.73;;;20.50;24.40;;;;;;4945150;29;20027;-82
2021/03/28 12:27:32;;;;;;;;;;;20.60;26.50;;;;;;4945791;29;20089;-79
2021/03/28 12:29:59;;;;;;;2.70;0.50;;;;;;;;;;4934323;28;19957;-81
2021/03/28 12:33:00;;;;;;;3.92;0.63;;;20.80;26.00;;;;;;4936751;28;20416;-81
2021/03/28 12:35:34;;;;;;;4.93;0.50;;;20.70;26.50;;;;;;4941509;29;20588;-81
2021/03/28 12:38:25;;;;;;;1.60;0.43;;;20.80;26.00;;;;;;4943067;29;20493;-80
2021/03/28 12:41:10;;;;;;;5.45;0.80;;;20.90;26.60;;;;;;4934920;28;20071;-80
2021/03/28 12:43:39;;;;;;;1.92;0.90;;;20.80;26.20;;;;;;4937408;29;20409;-80
2021/03/28 12:46:49;;;;;;;0.50;0.50;;;20.80;24.20;;;;;;4938267;29;20035;-80
2021/03/28 12:49:33;;;;;;;1.77;0.35;;;;;;;;;;4935209;29;20036;-80
2021/03/28 12:54:56;;;;;;;3.85;0.98;;;20.70;25.20;;;;;;5046372;23;20060;-86
2021/03/28 12:57:25;;;;;;;3.30;0.70;;;;;;;;;;4905192;29;20036;-87
2021/03/28 12:59:51;;;;;;;2.05;1.02;;;;;;;;;;4906302;29;20465;-87
2021/03/28 13:02:43;;;;;;;5.07;1.90;;;;;;;;;;4910832;29;20032;-87
2021/03/28 13:05:27;;;;;;;1.00;0.75;;;20.40;27.30;;;;;;4907403;29;20402;-86
2021/03/28 13:07:55;;;;;;;7.47;1.50;;;;;;;;;;4904572;29;20036;-84
2021/03/28 13:10:24;;;;;;;;;;;20.50;25.80;;;;;;4903963;29;20103;-85
2021/03/28 13:12:57;;;;;;;2.00;0.30;;;;;;;;;;4914895;29;20014;-86
2021/03/28 13:15:23;;;;;;;4.00;0.77;;;;;;;;;;4917667;29;20512;-86
2021/03/28 13:18:01;;;;;;;8.43;1.23;;;;;;;;;;4914197;29;20527;-87
2021/03/28 13:20:37;;;;;;;2.83;1.05;;;;;;;;;;4897731;29;20572;-86
2021/03/28 13:23:14;;;;;;;5.90;0.88;;;;;;;;;;4913649;29;20116;-87
2021/03/28 13:25:40;;;;;;;5.65;1.10;;;;;;;;;;4911139;29;20025;-86
2021/03/28 13:28:12;;;;;;;0.95;0.63;;;;;;;;;;4910106;29;20114;-87
2021/03/28 13:30:41;;;;;;;4.93;1.08;;;;;;;;;;4921311;29;20504;-85
2021/03/28 13:33:27;;;;;;;0.75;0.70;;;;;;;;;;4906738;29;20111;-85
2021/03/28 13:35:55;;;;;;;3.65;0.88;;;;;;;;;;4905883;29;20043;-85
2021/03/28 13:38:30;;;;;;;7.93;0.75;;;19.50;25.60;;;;;;4912616;29;20040;-86
2021/03/28 13:41:00;;;;;;;4.28;0.88;;;19.60;26.00;;;;;;4925872;29;20492;-85
2021/03/28 13:43:29;;;;;;;1.85;1.00;;;;;;;;;;4919892;29;20083;-84
2021/03/28 13:46:13;;;;;;;4.93;0.77;;;19.30;25.70;;;;;;4918468;29;20032;-84
2021/03/28 13:48:40;;;;;;;1.40;0.70;;;;;;;;;;4936517;29;20036;-85
2021/03/28 13:51:18;;;;;;;1.08;0.65;;;19.50;26.80;;;;;;4923846;29;20056;-85
2021/03/28 13:53:53;;;;;;;1.88;1.33;;;19.50;26.00;;;;;;4921750;29;20055;-85
2021/03/28 13:56:25;;;;;;;1.77;0.82;;;19.20;34.60;;;;;;4922967;29;20031;-84
2021/03/28 13:59:06;;;;;;;1.70;0.80;;;;;;;;;;4919588;29;20096;-84
2021/03/28 14:01:55;;;;;;;3.10;1.00;;;;;;;;;;4922815;29;20070;-84
2021/03/28 14:04:52;;;;;;;3.22;0.82;;;19.40;27.10;;;;;;4892620;29;20560;-85
2021/03/28 14:07:23;;;;;;;3.15;0.82;;;;;;;;;;4886744;29;20039;-84
2021/03/28 14:10:05;;;;;;;2.20;0.93;;;19.20;25.80;;;;;;4893943;29;20040;-85
2021/03/28 14:12:43;;;;;;;4.88;1.15;;;19.10;26.40;;;;;;4901047;29;20020;-85
2021/03/28 14:15:14;;;;;;;2.20;0.70;;;19.30;29.40;;;;;;4891047;29;20041;-85
2021/03/28 14:17:42;;;;;;;2.33;1.08;;;19.20;27.30;;;;;;4893711;29;20021;-85
2021/03/28 14:20:14;;;;;;;2.70;0.75;;;;;;;;;;4893516;29;20033;-85
2021/03/28 14:22:50;;;;;;;4.95;0.68;;;19.20;26.80;;;;;;4899684;29;20316;-85
2021/03/28 14:25:32;;;;;;;4.78;1.20;;;;;;;;;;4888781;29;20029;-85
2021/03/28 14:27:59;;;;;;;4.82;1.00;;;;;;;;;;4894071;29;20071;-87
2021/03/28 14:30:32;;;;;;;2.17;1.10;;;;;;;;;;4894669;29;20031;-86
2021/03/28 14:33:00;;;;;;;4.57;1.27;;;;;;;;;;4877766;29;20085;-85
2021/03/28 14:35:47;;;;;;;5.65;1.00;;;19.10;28.70;;;;;;4893636;29;20517;-85
2021/03/28 14:38:32;;;;;;;2.13;0.57;;;;;;;;;;4878715;29;20033;-85
2021/03/28 14:41:20;;;;;;;2.85;0.50;;;19.20;26.90;;;;;;4886972;29;20179;-85
2021/03/28 14:44:01;;;;;;;5.57;1.30;;;;;;;;;;4913650;29;20433;-85
2021/03/28 14:46:36;;;;;;;4.38;1.40;;;;;;;;;;4934697;29;20031;-85